sensor_id;sensor_type;location;lat;lon;timestamp;pressure;altitude;pressure_sealevel;temperature;humidity
19890;BME280;10107;51.198;6.824;2023-12-22T00:00:43;-21435.91;;;4.39;100.00
19890;BME280;10107;51.198;6.824;2023-12-22T00:04:47;-21436.59;;;4.41;100.00
19890;BME280;10107;51.198;6.824;2023-12-22T00:08:49;-21437.25;;;4.44;100.00
19890;BME280;10107;51.198;6.824;2023-12-22T00:12:50;-21437.38;;;4.44;100.00
19890;BME280;10107;51.198;6.824;2023-12-22T00:16:53;-21439.00;;;4.50;100.00
19890;BME280;10107;51.198;6.824;2023-12-22T00:20:55;-21439.41;;;4.52;100.00
19890;BME280;10107;51.198;6.824;2023-12-22T00:24:57;-21439.25;;;4.51;100.00
19890;BME280;10107;51.198;6.824;2023-12-22T00:28:59;-21439.53;;;4.52;100.00
19890;BME280;10107;51.198;6.824;2023-12-22T00:33:02;-21439.13;;;4.51;100.00
19890;BME280;10107;51.198;6.824;2023-12-22T00:37:04;-21439.78;;;4.53;100.00
19890;BME280;10107;51.198;6.824;2023-12-22T00:41:06;-21439.94;;;4.54;100.00
19890;BME280;10107;51.198;6.824;2023-12-22T00:45:08;-21441.41;;;4.60;100.00
19890;BME280;10107;51.198;6.824;2023-12-22T00:49:11;-21442.75;;;4.65;100.00
19890;BME280;10107;51.198;6.824;2023-12-22T00:53:13;-21444.75;;;4.72;100.00
19890;BME280;10107;51.198;6.824;2023-12-22T00:57:14;-21445.81;;;4.76;100.00
19890;BME280;10107;51.198;6.824;2023-12-22T01:01:16;-21445.13;;;4.74;100.00
19890;BME280;10107;51.198;6.824;2023-12-22T01:05:19;-21445.28;;;4.74;100.00
19890;BME280;10107;51.198;6.824;2023-12-22T01:09:21;-21445.53;;;4.75;100.00
19890;BME280;10107;51.198;6.824;2023-12-22T01:13:22;-21446.75;;;4.80;100.00
19890;BME280;10107;51.198;6.824;2023-12-22T01:17:24;-21447.00;;;4.81;100.00
19890;BME280;10107;51.198;6.824;2023-12-22T01:21:27;-21447.00;;;4.81;100.00
19890;BME280;10107;51.198;6.824;2023-12-22T01:25:29;-21447.28;;;4.82;100.00
19890;BME280;10107;51.198;6.824;2023-12-22T01:29:31;-21446.75;;;4.80;100.00
19890;BME280;10107;51.198;6.824;2023-12-22T01:33:32;-21447.16;;;4.82;100.00
19890;BME280;10107;51.198;6.824;2023-12-22T01:37:35;-21448.75;;;4.88;100.00
19890;BME280;10107;51.198;6.824;2023-12-22T01:41:37;-21449.16;;;4.89;100.00
19890;BME280;10107;51.198;6.824;2023-12-22T01:45:39;-21448.34;;;4.86;100.00
19890;BME280;10107;51.198;6.824;2023-12-22T01:49:43;-21448.09;;;4.85;100.00
19890;BME280;10107;51.198;6.824;2023-12-22T01:53:46;-21448.88;;;4.88;100.00
19890;BME280;10107;51.198;6.824;2023-12-22T01:57:49;-21450.09;;;4.93;100.00
19890;BME280;10107;51.198;6.824;2023-12-22T02:01:51;-21451.03;;;4.96;100.00
19890;BME280;10107;51.198;6.824;2023-12-22T02:05:53;-21450.75;;;4.95;100.00
19890;BME280;10107;51.198;6.824;2023-12-22T02:09:56;-21451.81;;;5.00;100.00
19890;BME280;10107;51.198;6.824;2023-12-22T02:13:58;-21453.16;;;5.05;100.00
19890;BME280;10107;51.198;6.824;2023-12-22T02:18:09;-21453.44;;;5.06;100.00
19890;BME280;10107;51.198;6.824;2023-12-22T02:22:12;-21453.81;;;5.07;100.00
19890;BME280;10107;51.198;6.824;2023-12-22T02:26:20;-21454.22;;;5.09;100.00
19890;BME280;10107;51.198;6.824;2023-12-22T02:30:25;-21455.97;;;5.15;100.00
19890;BME280;10107;51.198;6.824;2023-12-22T02:34:28;-21456.09;;;5.16;100.00
19890;BME280;10107;51.198;6.824;2023-12-22T02:38:33;-21453.56;;;5.06;100.00
19890;BME280;10107;51.198;6.824;2023-12-22T02:42:37;-21449.03;;;4.89;100.00
19890;BME280;10107;51.198;6.824;2023-12-22T02:46:39;-21444.75;;;4.72;100.00
19890;BME280;10107;51.198;6.824;2023-12-22T02:50:42;-21439.66;;;4.53;100.00
19890;BME280;10107;51.198;6.824;2023-12-22T02:54:44;-21436.44;;;4.41;100.00
19890;BME280;10107;51.198;6.824;2023-12-22T02:58:48;-21435.00;;;4.35;100.00
19890;BME280;10107;51.198;6.824;2023-12-22T03:02:50;-21434.06;;;4.31;100.00
19890;BME280;10107;51.198;6.824;2023-12-22T03:06:51;-21432.44;;;4.25;100.00
19890;BME280;10107;51.198;6.824;2023-12-22T03:10:53;-21430.69;;;4.19;100.00
19890;BME280;10107;51.198;6.824;2023-12-22T03:14:56;-21427.75;;;4.07;100.00
19890;BME280;10107;51.198;6.824;2023-12-22T03:18:57;-21424.00;;;3.93;100.00
19890;BME280;10107;51.198;6.824;2023-12-22T03:22:59;-21421.47;;;3.83;100.00
19890;BME280;10107;51.198;6.824;2023-12-22T03:27:01;-21418.94;;;3.73;100.00
19890;BME280;10107;51.198;6.824;2023-12-22T03:31:04;-21417.06;;;3.66;100.00
19890;BME280;10107;51.198;6.824;2023-12-22T03:35:07;-21415.19;;;3.59;100.00
19890;BME280;10107;51.198;6.824;2023-12-22T03:39:09;-21414.53;;;3.56;100.00
19890;BME280;10107;51.198;6.824;2023-12-22T03:43:10;-21414.91;;;3.58;100.00
19890;BME280;10107;51.198;6.824;2023-12-22T03:47:13;-21412.63;;;3.49;100.00
19890;BME280;10107;51.198;6.824;2023-12-22T03:51:15;-21409.44;;;3.37;100.00
19890;BME280;10107;51.198;6.824;2023-12-22T03:55:17;-21407.16;;;3.28;100.00
19890;BME280;10107;51.198;6.824;2023-12-22T03:59:19;-21407.16;;;3.28;100.00
19890;BME280;10107;51.198;6.824;2023-12-22T04:03:22;-21408.34;;;3.33;100.00
19890;BME280;10107;51.198;6.824;2023-12-22T04:07:23;-21411.16;;;3.44;100.00
19890;BME280;10107;51.198;6.824;2023-12-22T04:11:25;-21413.72;;;3.53;100.00
19890;BME280;10107;51.198;6.824;2023-12-22T04:15:26;-21416.25;;;3.63;100.00
19890;BME280;10107;51.198;6.824;2023-12-22T04:19:29;-21418.41;;;3.71;100.00
19890;BME280;10107;51.198;6.824;2023-12-22T04:23:31;-21419.75;;;3.76;100.00
19890;BME280;10107;51.198;6.824;2023-12-22T04:27:33;-21418.41;;;3.71;100.00
19890;BME280;10107;51.198;6.824;2023-12-22T04:31:35;-21417.19;;;3.67;100.00
19890;BME280;10107;51.198;6.824;2023-12-22T04:35:38;-21420.94;;;3.81;100.00
19890;BME280;10107;51.198;6.824;2023-12-22T04:39:40;-21424.81;;;3.96;100.00
19890;BME280;10107;51.198;6.824;2023-12-22T04:43:41;-21429.09;;;4.12;100.00
19890;BME280;10107;51.198;6.824;2023-12-22T04:47:43;-21432.97;;;4.27;100.00
19890;BME280;10107;51.198;6.824;2023-12-22T04:51:46;-21439.25;;;4.51;100.00
19890;BME280;10107;51.198;6.824;2023-12-22T04:55:48;-21443.69;;;4.68;100.00
19890;BME280;10107;51.198;6.824;2023-12-22T04:59:49;-21447.00;;;4.81;100.00
19890;BME280;10107;51.198;6.824;2023-12-22T05:03:51;-21449.56;;;4.91;100.00
19890;BME280;10107;51.198;6.824;2023-12-22T05:07:55;-21453.03;;;5.04;100.00
19890;BME280;10107;51.198;6.824;2023-12-22T05:11:57;-21456.38;;;5.17;100.00
19890;BME280;10107;51.198;6.824;2023-12-22T05:15:59;-21459.31;;;5.28;100.00
19890;BME280;10107;51.198;6.824;2023-12-22T05:20:00;-21462.66;;;5.41;100.00
19890;BME280;10107;51.198;6.824;2023-12-22T05:24:04;-21465.31;;;5.51;100.00
19890;BME280;10107;51.198;6.824;2023-12-22T05:28:06;-21467.44;;;5.60;100.00
19890;BME280;10107;51.198;6.824;2023-12-22T05:32:08;-21470.38;;;5.71;100.00
19890;BME280;10107;51.198;6.824;2023-12-22T05:36:10;-21473.59;;;5.83;100.00
19890;BME280;10107;51.198;6.824;2023-12-22T05:40:13;-21475.31;;;5.90;100.00
19890;BME280;10107;51.198;6.824;2023-12-22T05:44:14;-21476.91;;;5.96;100.00
19890;BME280;10107;51.198;6.824;2023-12-22T05:48:16;-21477.47;;;5.98;100.00
19890;BME280;10107;51.198;6.824;2023-12-22T05:52:19;-21477.06;;;5.97;100.00
19890;BME280;10107;51.198;6.824;2023-12-22T05:56:22;-21478.53;;;6.02;100.00
19890;BME280;10107;51.198;6.824;2023-12-22T06:00:24;-21480.53;;;6.10;100.00
19890;BME280;10107;51.198;6.824;2023-12-22T06:04:26;-21482.94;;;6.19;100.00
19890;BME280;10107;51.198;6.824;2023-12-22T06:08:28;-21482.66;;;6.18;100.00
19890;BME280;10107;51.198;6.824;2023-12-22T06:12:31;-21481.19;;;6.12;100.00
19890;BME280;10107;51.198;6.824;2023-12-22T06:16:32;-21479.31;;;6.05;100.00
19890;BME280;10107;51.198;6.824;2023-12-22T06:20:34;-21479.06;;;6.04;100.00
19890;BME280;10107;51.198;6.824;2023-12-22T06:24:36;-21478.66;;;6.03;100.00
19890;BME280;10107;51.198;6.824;2023-12-22T06:28:38;-21478.00;;;6.00;100.00
19890;BME280;10107;51.198;6.824;2023-12-22T06:32:40;-21478.13;;;6.01;100.00
19890;BME280;10107;51.198;6.824;2023-12-22T06:36:42;-21477.84;;;6.00;100.00
19890;BME280;10107;51.198;6.824;2023-12-22T06:40:44;-21478.66;;;6.03;100.00
19890;BME280;10107;51.198;6.824;2023-12-22T06:44:48;-21479.84;;;6.07;100.00
19890;BME280;10107;51.198;6.824;2023-12-22T06:48:49;-21480.38;;;6.09;100.00
19890;BME280;10107;51.198;6.824;2023-12-22T06:52:51;-21481.19;;;6.12;100.00
19890;BME280;10107;51.198;6.824;2023-12-22T06:56:52;-21482.78;;;6.19;100.00
19890;BME280;10107;51.198;6.824;2023-12-22T07:00:56;-21484.94;;;6.27;100.00
19890;BME280;10107;51.198;6.824;2023-12-22T07:05:02;-21485.47;;;6.29;100.00
19890;BME280;10107;51.198;6.824;2023-12-22T07:09:30;-21486.00;;;6.31;100.00
19890;BME280;10107;51.198;6.824;2023-12-22T07:13:32;-21486.25;;;6.32;100.00
19890;BME280;10107;51.198;6.824;2023-12-22T07:17:35;-21485.47;;;6.29;100.00
19890;BME280;10107;51.198;6.824;2023-12-22T07:21:36;-21485.06;;;6.27;100.00
19890;BME280;10107;51.198;6.824;2023-12-22T07:25:38;-21484.41;;;6.25;100.00
19890;BME280;10107;51.198;6.824;2023-12-22T07:29:40;-21485.19;;;6.28;100.00
19890;BME280;10107;51.198;6.824;2023-12-22T07:33:43;-21486.13;;;6.31;100.00
19890;BME280;10107;51.198;6.824;2023-12-22T07:37:44;-21482.94;;;6.19;100.00
19890;BME280;10107;51.198;6.824;2023-12-22T07:41:46;-21479.84;;;6.07;100.00
19890;BME280;10107;51.198;6.824;2023-12-22T07:45:48;-21478.00;;;6.00;100.00
19890;BME280;10107;51.198;6.824;2023-12-22T07:49:52;-21476.91;;;5.96;100.00
19890;BME280;10107;51.198;6.824;2023-12-22T07:53:54;-21476.13;;;5.93;100.00
19890;BME280;10107;51.198;6.824;2023-12-22T07:57:55;-21477.59;;;5.99;100.00
19890;BME280;10107;51.198;6.824;2023-12-22T08:01:57;-21479.84;;;6.07;100.00
19890;BME280;10107;51.198;6.824;2023-12-22T08:06:00;-21482.00;;;6.15;100.00
19890;BME280;10107;51.198;6.824;2023-12-22T08:10:02;-21485.06;;;6.27;100.00
19890;BME280;10107;51.198;6.824;2023-12-22T08:14:03;-21487.06;;;6.35;100.00
19890;BME280;10107;51.198;6.824;2023-12-22T08:18:06;-21489.06;;;6.43;100.00
19890;BME280;10107;51.198;6.824;2023-12-22T08:22:10;-21489.59;;;6.45;100.00
19890;BME280;10107;51.198;6.824;2023-12-22T08:26:13;-21491.59;;;6.52;100.00
19890;BME280;10107;51.198;6.824;2023-12-22T08:30:17;-21493.47;;;6.60;100.00
19890;BME280;10107;51.198;6.824;2023-12-22T08:34:19;-21494.78;;;6.65;100.00
19890;BME280;10107;51.198;6.824;2023-12-22T08:38:22;-21496.13;;;6.70;100.00
19890;BME280;10107;51.198;6.824;2023-12-22T08:42:24;-21497.19;;;6.74;100.00
19890;BME280;10107;51.198;6.824;2023-12-22T08:46:25;-21498.66;;;6.80;100.00
19890;BME280;10107;51.198;6.824;2023-12-22T08:50:27;-21500.38;;;6.86;100.00
19890;BME280;10107;51.198;6.824;2023-12-22T08:54:30;-21500.91;;;6.88;100.00
19890;BME280;10107;51.198;6.824;2023-12-22T08:58:32;-21502.00;;;6.92;100.00
19890;BME280;10107;51.198;6.824;2023-12-22T09:02:33;-21503.84;;;7.00;100.00
19890;BME280;10107;51.198;6.824;2023-12-22T09:06:35;-21505.31;;;7.05;100.00
19890;BME280;10107;51.198;6.824;2023-12-22T09:10:38;-21506.38;;;7.09;100.00
19890;BME280;10107;51.198;6.824;2023-12-22T09:14:40;-21507.31;;;7.13;100.00
19890;BME280;10107;51.198;6.824;2023-12-22T09:18:42;-21507.03;;;7.12;100.00
19890;BME280;10107;51.198;6.824;2023-12-22T09:22:45;-21507.72;;;7.14;100.00
19890;BME280;10107;51.198;6.824;2023-12-22T09:26:48;-21507.44;;;7.13;100.00
19890;BME280;10107;51.198;6.824;2023-12-22T09:30:51;-21508.38;;;7.17;100.00
19890;BME280;10107;51.198;6.824;2023-12-22T09:34:52;-21509.44;;;7.21;100.00
19890;BME280;10107;51.198;6.824;2023-12-22T09:38:55;-21511.44;;;7.29;100.00
19890;BME280;10107;51.198;6.824;2023-12-22T09:42:59;-21511.56;;;7.29;100.00
19890;BME280;10107;51.198;6.824;2023-12-22T09:47:04;-21511.44;;;7.29;100.00
19890;BME280;10107;51.198;6.824;2023-12-22T09:51:07;-21511.72;;;7.30;100.00
19890;BME280;10107;51.198;6.824;2023-12-22T09:55:09;-21512.50;;;7.33;100.00
19890;BME280;10107;51.198;6.824;2023-12-22T09:59:13;-21512.78;;;7.34;100.00
19890;BME280;10107;51.198;6.824;2023-12-22T10:03:15;-21514.63;;;7.41;100.00
19890;BME280;10107;51.198;6.824;2023-12-22T10:07:17;-21515.03;;;7.43;100.00
19890;BME280;10107;51.198;6.824;2023-12-22T10:11:20;-21515.31;;;7.44;100.00
19890;BME280;10107;51.198;6.824;2023-12-22T10:15:25;-21515.84;;;7.46;100.00
19890;BME280;10107;51.198;6.824;2023-12-22T10:19:27;-21516.50;;;7.48;100.00
19890;BME280;10107;51.198;6.824;2023-12-22T10:23:29;-21517.28;;;7.51;100.00
19890;BME280;10107;51.198;6.824;2023-12-22T10:27:30;-21518.50;;;7.56;100.00
19890;BME280;10107;51.198;6.824;2023-12-22T10:31:40;-21520.34;;;7.63;100.00
19890;BME280;10107;51.198;6.824;2023-12-22T10:35:41;-21520.50;;;7.64;100.00
19890;BME280;10107;51.198;6.824;2023-12-22T10:39:43;-21519.97;;;7.62;100.00
19890;BME280;10107;51.198;6.824;2023-12-22T10:43:50;-21519.81;;;7.61;100.00
19890;BME280;10107;51.198;6.824;2023-12-22T10:47:54;-21520.75;;;7.65;100.00
19890;BME280;10107;51.198;6.824;2023-12-22T10:51:55;-21521.03;;;7.66;100.00
19890;BME280;10107;51.198;6.824;2023-12-22T10:55:57;-21522.50;;;7.71;100.00
19890;BME280;10107;51.198;6.824;2023-12-22T10:59:59;-21522.88;;;7.73;100.00
19890;BME280;10107;51.198;6.824;2023-12-22T11:04:05;-21523.94;;;7.77;100.00
19890;BME280;10107;51.198;6.824;2023-12-22T11:08:07;-21529.13;;;7.97;100.00
19890;BME280;10107;51.198;6.824;2023-12-22T11:12:12;-21534.31;;;8.17;100.00
19890;BME280;10107;51.198;6.824;2023-12-22T11:16:15;-21535.78;;;8.23;100.00
19890;BME280;10107;51.198;6.824;2023-12-22T11:20:18;-21537.66;;;8.30;100.00
19890;BME280;10107;51.198;6.824;2023-12-22T11:24:20;-21538.19;;;8.32;100.00
19890;BME280;10107;51.198;6.824;2023-12-22T11:28:22;-21538.84;;;8.35;100.00
19890;BME280;10107;51.198;6.824;2023-12-22T11:32:28;-21537.78;;;8.30;100.00
19890;BME280;10107;51.198;6.824;2023-12-22T11:36:33;-21538.72;;;8.34;100.00
19890;BME280;10107;51.198;6.824;2023-12-22T11:40:36;-21539.25;;;8.36;100.00
19890;BME280;10107;51.198;6.824;2023-12-22T11:44:40;-21542.31;;;8.48;100.00
19890;BME280;10107;51.198;6.824;2023-12-22T11:48:47;-21544.69;;;8.57;100.00
19890;BME280;10107;51.198;6.824;2023-12-22T11:52:50;-21545.38;;;8.60;100.00
19890;BME280;10107;51.198;6.824;2023-12-22T11:56:52;-21545.75;;;8.61;100.00
19890;BME280;10107;51.198;6.824;2023-12-22T12:00:54;-21546.69;;;8.65;100.00
19890;BME280;10107;51.198;6.824;2023-12-22T12:04:57;-21548.00;;;8.70;100.00
19890;BME280;10107;51.198;6.824;2023-12-22T12:09:04;-21549.47;;;8.76;100.00
19890;BME280;10107;51.198;6.824;2023-12-22T12:13:06;-21551.19;;;8.82;100.00
19890;BME280;10107;51.198;6.824;2023-12-22T12:17:08;-21552.94;;;8.89;100.00
19890;BME280;10107;51.198;6.824;2023-12-22T12:21:11;-21553.72;;;8.92;100.00
19890;BME280;10107;51.198;6.824;2023-12-22T12:25:14;-21555.19;;;8.98;100.00
19890;BME280;10107;51.198;6.824;2023-12-22T12:29:16;-21556.91;;;9.04;100.00
19890;BME280;10107;51.198;6.824;2023-12-22T12:33:18;-21558.91;;;9.12;100.00
19890;BME280;10107;51.198;6.824;2023-12-22T12:37:21;-21560.63;;;9.19;100.00
19890;BME280;10107;51.198;6.824;2023-12-22T12:41:29;-21561.97;;;9.24;100.00
19890;BME280;10107;51.198;6.824;2023-12-22T12:45:31;-21562.75;;;9.27;100.00
19890;BME280;10107;51.198;6.824;2023-12-22T12:49:34;-21564.34;;;9.33;100.00
19890;BME280;10107;51.198;6.824;2023-12-22T12:53:36;-21565.28;;;9.37;100.00
19890;BME280;10107;51.198;6.824;2023-12-22T12:57:39;-21564.59;;;9.34;100.00
19890;BME280;10107;51.198;6.824;2023-12-22T13:01:42;-21563.69;;;9.30;100.00
19890;BME280;10107;51.198;6.824;2023-12-22T13:05:43;-21564.75;;;9.35;100.00
19890;BME280;10107;51.198;6.824;2023-12-22T13:09:45;-21566.72;;;9.42;100.00
19890;BME280;10107;51.198;6.824;2023-12-22T13:13:49;-21564.88;;;9.35;100.00
19890;BME280;10107;51.198;6.824;2023-12-22T13:17:51;-21561.69;;;9.23;100.00
19890;BME280;10107;51.198;6.824;2023-12-22T13:21:53;-21558.50;;;9.10;100.00
19890;BME280;10107;51.198;6.824;2023-12-22T13:25:55;-21558.13;;;9.09;100.00
19890;BME280;10107;51.198;6.824;2023-12-22T13:29:58;-21556.91;;;9.04;100.00
19890;BME280;10107;51.198;6.824;2023-12-22T13:34:00;-21554.66;;;8.96;100.00
19890;BME280;10107;51.198;6.824;2023-12-22T13:38:02;-21552.94;;;8.89;100.00
19890;BME280;10107;51.198;6.824;2023-12-22T13:42:14;-21553.06;;;8.89;100.00
19890;BME280;10107;51.198;6.824;2023-12-22T13:46:17;-21555.06;;;8.97;100.00
19890;BME280;10107;51.198;6.824;2023-12-22T13:50:19;-21557.44;;;9.06;100.00
19890;BME280;10107;51.198;6.824;2023-12-22T13:54:32;-21558.13;;;9.09;100.00
19890;BME280;10107;51.198;6.824;2023-12-22T13:58:43;-21558.63;;;9.11;100.00
19890;BME280;10107;51.198;6.824;2023-12-22T14:02:46;-21558.50;;;9.10;100.00
19890;BME280;10107;51.198;6.824;2023-12-22T14:06:49;-21559.84;;;9.16;100.00
19890;BME280;10107;51.198;6.824;2023-12-22T14:10:51;-21560.75;;;9.19;100.00
19890;BME280;10107;51.198;6.824;2023-12-22T14:14:52;-21560.38;;;9.18;100.00
19890;BME280;10107;51.198;6.824;2023-12-22T14:18:55;-21559.03;;;9.12;100.00
19890;BME280;10107;51.198;6.824;2023-12-22T14:22:57;-21557.56;;;9.07;100.00
19890;BME280;10107;51.198;6.824;2023-12-22T14:26:58;-21556.13;;;9.01;100.00
19890;BME280;10107;51.198;6.824;2023-12-22T14:31:00;-21553.72;;;8.92;100.00
19890;BME280;10107;51.198;6.824;2023-12-22T14:35:03;-21552.25;;;8.86;100.00
19890;BME280;10107;51.198;6.824;2023-12-22T14:39:05;-21550.94;;;8.81;100.00
19890;BME280;10107;51.198;6.824;2023-12-22T14:43:10;-21550.94;;;8.81;100.00
19890;BME280;10107;51.198;6.824;2023-12-22T14:47:12;-21550.81;;;8.81;100.00
19890;BME280;10107;51.198;6.824;2023-12-22T14:51:15;-21550.81;;;8.81;100.00
19890;BME280;10107;51.198;6.824;2023-12-22T14:55:16;-21550.66;;;8.80;100.00
19890;BME280;10107;51.198;6.824;2023-12-22T14:59:18;-21550.94;;;8.81;100.00
19890;BME280;10107;51.198;6.824;2023-12-22T15:03:20;-21550.13;;;8.78;100.00
19890;BME280;10107;51.198;6.824;2023-12-22T15:07:23;-21548.81;;;8.73;100.00
19890;BME280;10107;51.198;6.824;2023-12-22T15:11:25;-21547.88;;;8.69;100.00
19890;BME280;10107;51.198;6.824;2023-12-22T15:15:26;-21548.16;;;8.70;100.00
19890;BME280;10107;51.198;6.824;2023-12-22T15:19:28;-21548.53;;;8.72;100.00
19890;BME280;10107;51.198;6.824;2023-12-22T15:23:32;-21547.88;;;8.69;100.00
19890;BME280;10107;51.198;6.824;2023-12-22T15:27:34;-21545.91;;;8.62;100.00
19890;BME280;10107;51.198;6.824;2023-12-22T15:31:37;-21544.97;;;8.58;100.00
19890;BME280;10107;51.198;6.824;2023-12-22T15:35:39;-21545.09;;;8.59;100.00
19890;BME280;10107;51.198;6.824;2023-12-22T15:39:42;-21545.22;;;8.59;100.00
19890;BME280;10107;51.198;6.824;2023-12-22T15:43:44;-21544.56;;;8.57;100.00
19890;BME280;10107;51.198;6.824;2023-12-22T15:47:46;-21544.56;;;8.57;100.00
19890;BME280;10107;51.198;6.824;2023-12-22T15:51:47;-21543.75;;;8.53;100.00
19890;BME280;10107;51.198;6.824;2023-12-22T15:55:52;-21543.50;;;8.52;100.00
19890;BME280;10107;51.198;6.824;2023-12-22T15:59:53;-21542.44;;;8.48;100.00
19890;BME280;10107;51.198;6.824;2023-12-22T16:03:55;-21542.44;;;8.48;100.00
19890;BME280;10107;51.198;6.824;2023-12-22T16:07:57;-21543.63;;;8.53;100.00
19890;BME280;10107;51.198;6.824;2023-12-22T16:12:04;-21543.22;;;8.51;100.00
19890;BME280;10107;51.198;6.824;2023-12-22T16:16:06;-21540.03;;;8.39;100.00
19890;BME280;10107;51.198;6.824;2023-12-22T16:20:12;-21534.06;;;8.16;100.00
19890;BME280;10107;51.198;6.824;2023-12-22T16:24:13;-21528.59;;;7.95;100.00
19890;BME280;10107;51.198;6.824;2023-12-22T16:28:18;-21524.75;;;7.80;100.00
19890;BME280;10107;51.198;6.824;2023-12-22T16:32:20;-21523.03;;;7.73;100.00
19890;BME280;10107;51.198;6.824;2023-12-22T16:36:21;-21523.81;;;7.77;100.00
19890;BME280;10107;51.198;6.824;2023-12-22T16:40:23;-21527.81;;;7.92;100.00
19890;BME280;10107;51.198;6.824;2023-12-22T16:44:26;-21530.72;;;8.03;100.00
19890;BME280;10107;51.198;6.824;2023-12-22T16:48:28;-21532.06;;;8.08;100.00
19890;BME280;10107;51.198;6.824;2023-12-22T16:52:30;-21534.19;;;8.17;100.00
19890;BME280;10107;51.198;6.824;2023-12-22T16:56:35;-21536.84;;;8.27;100.00
19890;BME280;10107;51.198;6.824;2023-12-22T17:00:38;-21537.91;;;8.31;100.00
19890;BME280;10107;51.198;6.824;2023-12-22T17:04:39;-21539.78;;;8.38;100.00
19890;BME280;10107;51.198;6.824;2023-12-22T17:08:41;-21539.91;;;8.39;100.00
19890;BME280;10107;51.198;6.824;2023-12-22T17:12:43;-21539.25;;;8.36;100.00
19890;BME280;10107;51.198;6.824;2023-12-22T17:16:46;-21539.25;;;8.36;100.00
19890;BME280;10107;51.198;6.824;2023-12-22T17:20:47;-21541.78;;;8.46;100.00
19890;BME280;10107;51.198;6.824;2023-12-22T17:24:49;-21543.63;;;8.53;100.00
19890;BME280;10107;51.198;6.824;2023-12-22T17:28:51;-21544.97;;;8.58;100.00
19890;BME280;10107;51.198;6.824;2023-12-22T17:32:53;-21545.91;;;8.62;100.00
19890;BME280;10107;51.198;6.824;2023-12-22T17:36:55;-21543.22;;;8.51;100.00
19890;BME280;10107;51.198;6.824;2023-12-22T17:40:57;-21541.38;;;8.44;100.00
19890;BME280;10107;51.198;6.824;2023-12-22T17:44:58;-21540.84;;;8.42;100.00
19890;BME280;10107;51.198;6.824;2023-12-22T17:49:01;-21539.50;;;8.37;100.00
19890;BME280;10107;51.198;6.824;2023-12-22T17:53:03;-21539.91;;;8.39;100.00
19890;BME280;10107;51.198;6.824;2023-12-22T17:57:06;-21539.78;;;8.38;100.00
19890;BME280;10107;51.198;6.824;2023-12-22T18:01:12;-21540.31;;;8.40;100.00
19890;BME280;10107;51.198;6.824;2023-12-22T18:05:15;-21540.16;;;8.40;100.00
19890;BME280;10107;51.198;6.824;2023-12-22T18:09:17;-21541.38;;;8.44;100.00
19890;BME280;10107;51.198;6.824;2023-12-22T18:13:18;-21541.91;;;8.46;100.00
19890;BME280;10107;51.198;6.824;2023-12-22T18:17:20;-21543.09;;;8.51;100.00
19890;BME280;10107;51.198;6.824;2023-12-22T18:21:23;-21542.31;;;8.48;100.00
19890;BME280;10107;51.198;6.824;2023-12-22T18:25:25;-21542.69;;;8.49;100.00
19890;BME280;10107;51.198;6.824;2023-12-22T18:29:26;-21543.63;;;8.53;100.00
19890;BME280;10107;51.198;6.824;2023-12-22T18:33:28;-21543.75;;;8.53;100.00
19890;BME280;10107;51.198;6.824;2023-12-22T18:37:31;-21543.38;;;8.52;100.00
19890;BME280;10107;51.198;6.824;2023-12-22T18:41:33;-21541.63;;;8.45;100.00
19890;BME280;10107;51.198;6.824;2023-12-22T18:45:34;-21539.78;;;8.38;100.00
19890;BME280;10107;51.198;6.824;2023-12-22T18:49:36;-21539.50;;;8.37;100.00
19890;BME280;10107;51.198;6.824;2023-12-22T18:53:39;-21539.38;;;8.37;100.00
19890;BME280;10107;51.198;6.824;2023-12-22T18:57:41;-21537.91;;;8.31;100.00
19890;BME280;10107;51.198;6.824;2023-12-22T19:01:42;-21537.38;;;8.29;100.00
19890;BME280;10107;51.198;6.824;2023-12-22T19:05:44;-21534.06;;;8.16;100.00
19890;BME280;10107;51.198;6.824;2023-12-22T19:09:47;-21530.19;;;8.01;100.00
19890;BME280;10107;51.198;6.824;2023-12-22T19:13:49;-21529.94;;;8.00;100.00
19890;BME280;10107;51.198;6.824;2023-12-22T19:17:50;-21531.13;;;8.05;100.00
19890;BME280;10107;51.198;6.824;2023-12-22T19:21:52;-21531.94;;;8.08;100.00
19890;BME280;10107;51.198;6.824;2023-12-22T19:25:55;-21532.72;;;8.11;100.00
19890;BME280;10107;51.198;6.824;2023-12-22T19:29:57;-21533.91;;;8.16;100.00
19890;BME280;10107;51.198;6.824;2023-12-22T19:33:58;-21535.78;;;8.23;100.00
19890;BME280;10107;51.198;6.824;2023-12-22T19:38:00;-21537.13;;;8.28;100.00
19890;BME280;10107;51.198;6.824;2023-12-22T19:42:04;-21539.25;;;8.36;100.00
19890;BME280;10107;51.198;6.824;2023-12-22T19:46:07;-21539.25;;;8.36;100.00
19890;BME280;10107;51.198;6.824;2023-12-22T19:50:10;-21539.63;;;8.38;100.00
19890;BME280;10107;51.198;6.824;2023-12-22T19:54:12;-21539.91;;;8.39;100.00
19890;BME280;10107;51.198;6.824;2023-12-22T19:58:15;-21540.31;;;8.40;100.00
19890;BME280;10107;51.198;6.824;2023-12-22T20:02:18;-21538.56;;;8.33;100.00
19890;BME280;10107;51.198;6.824;2023-12-22T20:06:20;-21534.59;;;8.18;100.00
19890;BME280;10107;51.198;6.824;2023-12-22T20:10:21;-21529.53;;;7.99;100.00
19890;BME280;10107;51.198;6.824;2023-12-22T20:14:25;-21524.88;;;7.81;100.00
19890;BME280;10107;51.198;6.824;2023-12-22T20:18:26;-21521.69;;;7.68;100.00
19890;BME280;10107;51.198;6.824;2023-12-22T20:22:28;-21519.69;;;7.61;100.00
19890;BME280;10107;51.198;6.824;2023-12-22T20:26:30;-21519.81;;;7.61;100.00
19890;BME280;10107;51.198;6.824;2023-12-22T20:30:33;-21519.56;;;7.60;100.00
19890;BME280;10107;51.198;6.824;2023-12-22T20:34:35;-21521.97;;;7.69;100.00
19890;BME280;10107;51.198;6.824;2023-12-22T20:38:37;-21523.41;;;7.75;100.00
19890;BME280;10107;51.198;6.824;2023-12-22T20:42:38;-21526.22;;;7.86;100.00
19890;BME280;10107;51.198;6.824;2023-12-22T20:46:41;-21528.88;;;7.96;100.00
19890;BME280;10107;51.198;6.824;2023-12-22T20:50:43;-21530.59;;;8.03;100.00
19890;BME280;10107;51.198;6.824;2023-12-22T20:54:45;-21531.53;;;8.06;100.00
19890;BME280;10107;51.198;6.824;2023-12-22T20:58:46;-21532.84;;;8.11;100.00
19890;BME280;10107;51.198;6.824;2023-12-22T21:02:49;-21531.94;;;8.08;100.00
19890;BME280;10107;51.198;6.824;2023-12-22T21:06:51;-21531.78;;;8.07;100.00